createdAt,value
2018-04-17T00:02:15.156Z,26.73
2018-04-17T00:04:41.931Z,23.33
2018-04-17T00:07:08.654Z,21.07
2018-04-17T00:09:35.341Z,28.53
2018-04-17T00:12:02.006Z,28.03
2018-04-17T00:14:28.678Z,23.80
2018-04-17T00:16:55.378Z,25.00
2018-04-17T00:19:22.042Z,22.83
2018-04-17T00:24:49.579Z,29.03
2018-04-17T00:27:16.672Z,29.37
2018-04-17T00:29:43.651Z,24.00
2018-04-17T00:32:10.562Z,20.87
2018-04-17T00:34:37.476Z,20.60
2018-04-17T00:37:04.459Z,23.30
2018-04-17T00:39:32.039Z,21.70
2018-04-17T00:41:59.620Z,28.40
2018-04-17T00:44:26.419Z,27.13
2018-04-17T00:46:53.350Z,23.40
2018-04-17T00:49:20.385Z,28.23
2018-04-17T00:51:47.218Z,25.20
2018-04-17T00:54:22.232Z,24.03
2018-04-17T00:56:49.154Z,20.03
2018-04-17T00:59:16.584Z,22.00
2018-04-17T01:01:44.204Z,22.87
2018-04-17T01:04:11.624Z,23.63
2018-04-17T01:06:39.072Z,30.10
2018-04-17T01:09:06.469Z,24.67
2018-04-17T01:11:33.114Z,28.27
2018-04-17T01:13:59.794Z,26.80
2018-04-17T01:16:26.464Z,27.67
2018-04-17T01:18:53.134Z,25.40
2018-04-17T01:21:19.804Z,22.20
2018-04-17T01:23:46.465Z,26.67
2018-04-17T01:26:13.164Z,24.10
2018-04-17T01:28:39.831Z,23.33
2018-04-17T01:31:07.244Z,22.47
2018-04-17T01:33:33.923Z,22.37
2018-04-17T01:36:01.339Z,24.03
2018-04-17T01:38:28.004Z,22.97
2018-04-17T01:40:54.679Z,22.57
2018-04-17T01:43:21.318Z,27.40
2018-04-17T01:45:47.978Z,22.23
2018-04-17T01:48:14.638Z,18.33
2018-04-17T01:50:41.328Z,24.63
2018-04-17T01:53:08.072Z,25.07
2018-04-17T01:55:34.733Z,19.00
2018-04-17T01:58:01.404Z,19.63
2018-04-17T02:00:28.065Z,22.83
2018-04-17T02:02:55.478Z,24.10
2018-04-17T02:05:22.152Z,19.80
2018-04-17T02:07:49.554Z,28.40
2018-04-17T02:10:16.211Z,25.90
2018-04-17T02:12:42.897Z,22.80
2018-04-17T02:15:09.581Z,25.30
2018-04-17T02:17:36.276Z,26.43
2018-04-17T02:20:03.048Z,22.83
2018-04-17T02:22:29.721Z,18.70
2018-04-17T02:24:56.391Z,21.87
2018-04-17T02:27:23.046Z,26.63
2018-04-17T02:29:49.714Z,18.93
2018-04-17T02:32:16.500Z,21.83
2018-04-17T02:34:43.215Z,24.00
2018-04-17T02:37:09.907Z,23.03
2018-04-17T02:39:36.572Z,25.33
2018-04-17T02:42:03.293Z,28.40
2018-04-17T02:44:29.972Z,22.50
2018-04-17T02:46:56.694Z,28.60
2018-04-17T02:49:23.371Z,22.77
2018-04-17T02:51:50.819Z,23.27
2018-04-17T02:54:18.269Z,25.20
2018-04-17T02:56:45.684Z,22.70
2018-04-17T02:59:12.358Z,20.67
2018-04-17T03:01:39.790Z,20.77
2018-04-17T03:04:06.480Z,26.20
2018-04-17T03:06:33.145Z,25.87
2018-04-17T03:08:59.812Z,22.57
2018-04-17T03:11:26.488Z,32.00
2018-04-17T03:13:53.187Z,22.83
2018-04-17T03:16:19.842Z,27.77
2018-04-17T03:18:47.305Z,22.87
2018-04-17T03:21:14.772Z,22.60
2018-04-17T03:23:41.434Z,21.97
2018-04-17T03:26:08.143Z,23.33
2018-04-17T03:28:35.568Z,18.00
2018-04-17T03:31:02.235Z,22.47
2018-04-17T03:33:29.682Z,22.63
2018-04-17T03:35:57.125Z,28.37
2018-04-17T03:38:23.822Z,22.33
2018-04-17T03:40:51.227Z,26.80
2018-04-17T03:43:17.879Z,25.13
2018-04-17T03:45:45.311Z,25.00
2018-04-17T03:48:12.013Z,24.13
2018-04-17T03:50:38.683Z,26.53
2018-04-17T03:53:05.358Z,31.33
2018-04-17T03:55:32.055Z,24.33
2018-04-17T03:57:58.715Z,30.00
2018-04-17T04:00:26.132Z,26.27
2018-04-17T04:02:52.807Z,30.00
2018-04-17T04:05:20.215Z,31.20
2018-04-17T04:07:46.860Z,23.33
2018-04-17T04:10:13.521Z,24.23
2018-04-17T04:12:40.255Z,24.57
2018-04-17T04:15:06.987Z,25.73
2018-04-17T04:17:52.235Z,26.77
2018-04-17T04:20:37.224Z,26.90
2018-04-17T04:23:22.420Z,33.17
2018-04-17T04:26:08.180Z,24.80
2018-04-17T04:28:35.032Z,27.70
2018-04-17T04:31:01.822Z,27.57
2018-04-17T04:33:28.552Z,26.20
2018-04-17T04:35:55.241Z,24.40
2018-04-17T04:38:21.915Z,27.23
2018-04-17T04:40:49.404Z,23.30
2018-04-17T04:43:16.145Z,29.47
2018-04-17T04:45:42.955Z,28.40
2018-04-17T04:48:10.435Z,27.10
2018-04-17T04:50:37.160Z,26.57
2018-04-17T04:53:03.900Z,25.93
2018-04-17T04:55:30.627Z,26.23
2018-04-17T04:57:58.144Z,24.83
2018-04-17T05:00:24.908Z,28.87
2018-04-17T05:02:51.673Z,24.63
2018-04-17T05:05:19.150Z,21.53
2018-04-17T05:07:45.885Z,22.83
2018-04-17T05:10:12.660Z,26.97
2018-04-17T05:12:39.430Z,21.07
2018-04-17T05:15:06.187Z,18.67
2018-04-17T05:17:33.688Z,19.50
2018-04-17T05:20:00.364Z,26.87
2018-04-17T05:22:27.018Z,23.33
2018-04-17T05:24:54.431Z,26.33
2018-04-17T05:27:21.187Z,25.67
2018-04-17T05:29:47.946Z,30.03
2018-04-17T05:32:15.444Z,25.70
2018-04-17T05:34:42.204Z,25.40
2018-04-17T05:37:08.936Z,24.37
2018-04-17T05:39:35.622Z,29.33
2018-04-17T05:42:04.079Z,28.47
2018-04-17T05:44:30.778Z,19.47
2018-04-17T05:46:57.466Z,20.63
2018-04-17T05:49:24.132Z,24.90
2018-04-17T05:51:50.806Z,19.63
2018-04-17T05:54:17.474Z,20.73
2018-04-17T05:56:44.167Z,21.70
2018-04-17T05:59:10.871Z,20.23
2018-04-17T06:01:38.323Z,27.07
2018-04-17T06:04:05.737Z,19.57
2018-04-17T06:06:32.391Z,22.40
2018-04-17T06:08:59.073Z,26.67
2018-04-17T06:11:25.796Z,24.37
2018-04-17T06:13:53.206Z,23.03
2018-04-17T06:16:19.873Z,22.10
2018-04-17T06:18:46.556Z,22.30
2018-04-17T06:21:14.163Z,20.80
2018-04-17T06:23:40.864Z,25.07
2018-04-17T06:26:07.539Z,25.33
2018-04-17T06:28:34.216Z,19.30
2018-04-17T06:31:00.888Z,24.47
2018-04-17T06:33:27.578Z,21.13
2018-04-17T06:35:54.976Z,19.23
2018-04-17T06:38:21.649Z,24.00
2018-04-17T06:40:48.358Z,23.80
2018-04-17T06:43:15.099Z,26.37
2018-04-17T06:45:41.771Z,21.10
2018-04-17T06:48:08.431Z,20.80
2018-04-17T06:50:35.831Z,21.03
2018-04-17T06:53:02.499Z,24.47
2018-04-17T06:55:29.168Z,21.60
2018-04-17T06:57:55.932Z,21.30
2018-04-17T07:00:23.303Z,19.70
2018-04-17T07:02:49.971Z,24.53
2018-04-17T07:05:16.693Z,20.57
2018-04-17T07:07:43.353Z,21.10
2018-04-17T07:10:10.119Z,19.60
2018-04-17T07:12:36.804Z,21.83
2018-04-17T07:15:03.497Z,23.73
2018-04-17T07:17:30.191Z,23.80
2018-04-17T07:19:56.857Z,21.23
2018-04-17T07:22:24.299Z,23.47
2018-04-17T07:24:51.035Z,22.37
2018-04-17T07:27:17.731Z,25.00
2018-04-17T07:29:44.406Z,23.07
2018-04-17T07:32:11.072Z,22.47
2018-04-17T07:34:38.517Z,23.80
2018-04-17T07:37:05.177Z,29.13
2018-04-17T07:39:31.854Z,22.80
2018-04-17T07:41:58.506Z,21.07
2018-04-17T07:44:25.203Z,22.47
2018-04-17T07:47:10.961Z,22.53
2018-04-17T07:49:38.431Z,24.50
2018-04-17T07:52:05.164Z,29.70
2018-04-17T07:54:32.592Z,26.33
2018-04-17T07:56:59.259Z,26.27
2018-04-17T07:59:26.702Z,27.87
2018-04-17T08:01:53.395Z,23.23
2018-04-17T08:04:20.079Z,24.50
2018-04-17T08:06:47.511Z,23.10
2018-04-17T08:09:14.175Z,26.20
2018-04-17T08:11:41.591Z,23.70
2018-04-17T08:14:08.296Z,32.87
2018-04-17T08:16:34.976Z,30.90
2018-04-17T08:19:01.669Z,31.50
2018-04-17T08:21:28.359Z,26.37
2018-04-17T08:23:55.063Z,24.47
2018-04-17T08:26:21.786Z,27.50
2018-04-17T08:28:48.446Z,24.80
2018-04-17T08:31:15.157Z,29.93
2018-04-17T08:33:41.828Z,29.10
2018-04-17T08:36:08.604Z,24.77
2018-04-17T08:38:35.282Z,30.90
2018-04-17T08:41:01.971Z,26.03
2018-04-17T08:43:28.656Z,27.80
2018-04-17T08:45:55.331Z,33.10
2018-04-17T08:48:22.024Z,25.70
2018-04-17T08:50:48.691Z,25.53
2018-04-17T08:53:15.384Z,33.90
2018-04-17T08:55:42.809Z,33.27
2018-04-17T08:58:09.492Z,33.87
2018-04-17T09:00:36.183Z,39.30
2018-04-17T09:03:02.924Z,38.80
2018-04-17T09:05:29.622Z,34.13
2018-04-17T09:07:56.316Z,31.00
2018-04-17T09:10:22.988Z,30.40
2018-04-17T09:12:49.659Z,35.00
2018-04-17T09:15:16.319Z,31.67
2018-04-17T09:17:42.981Z,28.33
2018-04-17T09:20:10.386Z,27.73
2018-04-17T09:22:37.058Z,26.40
2018-04-17T09:25:03.795Z,36.37
2018-04-17T09:27:30.543Z,52.33
2018-04-17T09:29:57.311Z,32.23
2018-04-17T09:32:24.083Z,39.13
2018-04-17T09:34:50.834Z,39.53
2018-04-17T09:37:17.592Z,35.07
2018-04-17T09:39:44.381Z,44.27
2018-04-17T09:42:11.191Z,35.17
2018-04-17T09:44:38.626Z,45.13
2018-04-17T09:47:05.324Z,47.67
2018-04-17T09:49:32.019Z,43.80
2018-04-17T09:51:58.679Z,50.20
2018-04-17T09:54:26.111Z,53.20
2018-04-17T09:56:52.823Z,43.73
2018-04-17T09:59:19.560Z,39.70
2018-04-17T10:01:46.291Z,44.77
2018-04-17T10:04:13.019Z,45.30
2018-04-17T10:06:39.684Z,47.03
2018-04-17T10:09:06.521Z,47.42
2018-04-17T10:11:33.892Z,51.05
2018-04-17T10:14:00.586Z,39.65
2018-04-17T10:16:27.265Z,40.27
2018-04-17T10:18:53.946Z,49.33
2018-04-17T10:21:20.623Z,43.00
2018-04-17T10:23:47.463Z,49.17
2018-04-17T10:26:14.136Z,36.53
2018-04-17T10:28:40.808Z,47.73
2018-04-17T10:31:07.471Z,50.23
2018-04-17T10:33:34.159Z,54.83
2018-04-17T10:36:01.576Z,45.43
2018-04-17T10:38:28.264Z,43.90
2018-04-17T10:40:54.939Z,42.13
2018-04-17T10:43:21.611Z,47.73
2018-04-17T10:45:48.324Z,50.20
2018-04-17T10:48:15.012Z,50.95
2018-04-17T10:50:42.418Z,40.75
2018-04-17T10:53:09.098Z,41.90
2018-04-17T10:55:36.523Z,44.90
2018-04-17T10:58:03.208Z,41.77
2018-04-17T11:00:29.866Z,53.73
2018-04-17T11:02:56.567Z,38.30
2018-04-17T11:05:23.997Z,43.85
2018-04-17T11:07:50.711Z,43.72
2018-04-17T11:10:17.456Z,43.35
2018-04-17T11:12:44.133Z,46.80
2018-04-17T11:15:10.803Z,44.50
2018-04-17T11:17:37.496Z,49.63
2018-04-17T11:20:04.208Z,47.30
2018-04-17T11:22:30.893Z,42.33
2018-04-17T11:24:58.331Z,47.13
2018-04-17T11:27:25.013Z,45.30
2018-04-17T11:29:51.677Z,43.03
2018-04-17T11:32:18.370Z,50.97
2018-04-17T11:34:45.841Z,42.10
2018-04-17T11:37:12.509Z,44.40
2018-04-17T11:39:39.209Z,44.13
2018-04-17T11:42:06.656Z,50.30
2018-04-17T11:44:34.064Z,41.53
2018-04-17T11:47:07.391Z,40.83
2018-04-17T11:49:34.272Z,45.10
2018-04-17T11:52:00.939Z,48.80
2018-04-17T11:54:27.669Z,53.53
2018-04-17T11:56:54.349Z,44.90
2018-04-17T11:59:22.146Z,48.83
2018-04-17T12:01:49.085Z,58.07
2018-04-17T12:04:15.836Z,41.60
2018-04-17T12:06:42.549Z,50.15
2018-04-17T12:09:09.998Z,54.03
2018-04-17T12:11:37.423Z,49.38
2018-04-17T12:14:04.128Z,48.63
2018-04-17T12:16:30.808Z,45.87
2018-04-17T12:18:57.528Z,46.70
2018-04-17T12:21:24.202Z,48.33
2018-04-17T12:23:50.863Z,44.33
2018-04-17T12:26:17.580Z,49.07
2018-04-17T12:28:44.299Z,52.53
2018-04-17T12:31:11.010Z,49.17
2018-04-17T12:33:37.753Z,43.80
2018-04-17T12:36:04.434Z,48.03
2018-04-17T12:38:31.872Z,37.73
2018-04-17T12:40:58.584Z,44.60
2018-04-17T12:43:25.309Z,48.00
2018-04-17T12:45:51.991Z,36.33
2018-04-17T12:48:18.676Z,39.30
2018-04-17T12:50:45.379Z,29.77
2018-04-17T12:53:12.099Z,38.63
2018-04-17T12:55:38.812Z,40.77
2018-04-17T12:58:05.544Z,38.27
2018-04-17T13:00:32.991Z,45.10
2018-04-17T13:02:59.656Z,37.87
2018-04-17T13:05:26.348Z,39.60
2018-04-17T13:07:53.789Z,36.93
2018-04-17T13:10:21.061Z,49.50
2018-04-17T13:12:47.743Z,45.30
2018-04-17T13:15:14.412Z,54.00
2018-04-17T13:17:41.075Z,48.13
2018-04-17T13:20:07.768Z,45.03
2018-04-17T13:22:34.490Z,52.53
2018-04-17T13:25:01.189Z,44.17
2018-04-17T13:27:28.603Z,35.80
2018-04-17T13:29:55.291Z,29.27
2018-04-17T13:32:21.971Z,34.95
2018-04-17T13:34:48.651Z,32.13
2018-04-17T13:37:15.329Z,26.87
2018-04-17T13:39:42.011Z,31.77
2018-04-17T13:42:08.692Z,33.33
2018-04-17T13:44:35.352Z,24.05
2018-04-17T13:47:02.069Z,27.02
2018-04-17T13:49:28.764Z,32.07
2018-04-17T13:51:55.451Z,31.73
2018-04-17T13:54:22.136Z,30.63
2018-04-17T13:56:48.914Z,31.13
2018-04-17T13:59:15.801Z,26.23
2018-04-17T14:01:42.481Z,38.60
2018-04-17T14:04:09.900Z,35.87
2018-04-17T14:06:36.575Z,33.80
2018-04-17T14:09:05.868Z,39.53
2018-04-17T14:11:32.547Z,35.90
2018-04-17T14:13:59.242Z,29.30
2018-04-17T14:16:26.645Z,43.23
2018-04-17T14:18:53.300Z,40.03
2018-04-17T14:21:19.962Z,30.83
2018-04-17T14:23:46.635Z,33.07
2018-04-17T14:26:13.295Z,32.97
2018-04-17T14:28:39.982Z,28.30
2018-04-17T14:31:06.690Z,32.43
2018-04-17T14:33:33.360Z,28.73
2018-04-17T14:36:00.788Z,22.23
2018-04-17T14:38:27.518Z,29.40
2018-04-17T14:40:54.192Z,33.13
2018-04-17T14:43:21.697Z,35.07
2018-04-17T14:45:48.473Z,29.07
2018-04-17T14:48:15.211Z,37.37
2018-04-17T14:50:42.758Z,35.67
2018-04-17T14:53:09.496Z,34.67
2018-04-17T14:55:36.308Z,36.43
2018-04-17T14:58:03.212Z,29.67
2018-04-17T15:00:29.940Z,34.13
2018-04-17T15:02:56.703Z,39.57
2018-04-17T15:05:24.206Z,33.40
2018-04-17T15:07:50.971Z,34.93
2018-04-17T15:10:17.758Z,36.27
2018-04-17T15:12:44.543Z,34.70
2018-04-17T15:15:11.313Z,36.30
2018-04-17T15:17:38.114Z,36.83
2018-04-17T15:20:04.883Z,24.70
2018-04-17T15:22:31.708Z,37.77
2018-04-17T15:24:58.537Z,35.37
2018-04-17T15:27:25.280Z,33.00
2018-04-17T15:29:52.024Z,36.43
2018-04-17T15:32:18.783Z,33.57
2018-04-17T15:34:45.598Z,33.67
2018-04-17T15:37:12.411Z,37.30
2018-04-17T15:39:39.151Z,40.43
2018-04-17T15:42:05.933Z,31.43
2018-04-17T15:44:32.671Z,38.90
2018-04-17T15:46:59.429Z,36.23
2018-04-17T15:49:26.166Z,45.80
2018-04-17T15:51:52.866Z,38.90
2018-04-17T15:54:19.576Z,33.70
2018-04-17T15:56:46.294Z,35.17
2018-04-17T15:59:13.024Z,35.80
2018-04-17T16:01:39.739Z,30.83
2018-04-17T16:04:06.444Z,33.47
2018-04-17T16:06:33.119Z,38.70
2018-04-17T16:08:59.811Z,35.10
2018-04-17T16:11:26.617Z,37.60
2018-04-17T16:13:53.384Z,38.47
2018-04-17T16:16:20.204Z,31.33
2018-04-17T16:18:47.721Z,35.43
2018-04-17T16:21:14.514Z,37.50
2018-04-17T16:23:45.624Z,36.60
2018-04-17T16:26:12.467Z,36.77
2018-04-17T16:28:39.220Z,36.33
2018-04-17T16:31:06.020Z,33.77
2018-04-17T16:33:32.805Z,40.97
2018-04-17T16:36:00.543Z,39.87
2018-04-17T16:38:27.317Z,37.33
2018-04-17T16:40:54.875Z,30.83
2018-04-17T16:43:22.352Z,29.07
2018-04-17T16:45:49.159Z,39.27
2018-04-17T16:48:16.005Z,34.23
2018-04-17T16:50:42.751Z,35.80
2018-04-17T16:53:10.299Z,38.37
2018-04-17T16:55:37.062Z,30.10
2018-04-17T16:58:04.582Z,32.53
2018-04-17T17:00:31.341Z,32.13
2018-04-17T17:02:58.914Z,31.60
2018-04-17T17:05:26.534Z,31.47
2018-04-17T17:07:53.575Z,27.37
2018-04-17T17:10:20.377Z,33.63
2018-04-17T17:12:47.134Z,32.50
2018-04-17T17:15:13.898Z,36.77
2018-04-17T17:17:40.675Z,39.00
2018-04-17T17:20:08.178Z,29.97
2018-04-17T17:22:34.927Z,33.90
2018-04-17T17:25:01.717Z,37.87
2018-04-17T17:27:29.265Z,32.20
2018-04-17T17:29:56.131Z,28.83
2018-04-17T17:32:23.631Z,29.00
2018-04-17T17:34:50.416Z,26.37
2018-04-17T17:37:17.913Z,27.70
2018-04-17T17:39:44.626Z,29.43
2018-04-17T17:42:12.103Z,28.77
2018-04-17T17:44:38.797Z,25.27
2018-04-17T17:47:05.492Z,29.03
2018-04-17T17:49:32.305Z,34.80
2018-04-17T17:51:59.049Z,25.53
2018-04-17T17:54:26.471Z,36.07
2018-04-17T17:56:53.237Z,28.40
2018-04-17T17:59:20.918Z,27.00
2018-04-17T18:01:47.668Z,32.37
2018-04-17T18:04:14.416Z,25.87
2018-04-17T18:06:41.157Z,35.03
2018-04-17T18:09:07.959Z,31.67
2018-04-17T18:11:34.719Z,23.60
2018-04-17T18:14:01.445Z,26.40
2018-04-17T18:16:28.178Z,30.57
2018-04-17T18:18:54.933Z,30.37
2018-04-17T18:21:22.454Z,31.83
2018-04-17T18:23:49.972Z,26.90
2018-04-17T18:26:16.786Z,26.00
2018-04-17T18:28:43.571Z,33.50
2018-04-17T18:31:10.354Z,30.77
2018-04-17T18:33:37.858Z,33.73
2018-04-17T18:36:04.604Z,36.73
2018-04-17T18:38:31.376Z,33.63
2018-04-17T18:40:58.122Z,31.27
2018-04-17T18:43:25.582Z,29.53
2018-04-17T18:45:53.072Z,30.20
2018-04-17T18:48:19.771Z,31.30
2018-04-17T18:50:47.231Z,32.73
2018-04-17T18:53:15.462Z,29.03
2018-04-17T18:55:42.241Z,32.27
2018-04-17T18:58:09.676Z,28.70
2018-04-17T19:00:36.399Z,31.87
2018-04-17T19:03:03.170Z,31.83
2018-04-17T19:05:29.880Z,32.83
2018-04-17T19:07:56.612Z,30.77
2018-04-17T19:10:24.188Z,26.53
2018-04-17T19:12:50.896Z,28.03
2018-04-17T19:15:17.615Z,27.03
2018-04-17T19:17:44.295Z,26.27
2018-04-17T19:20:11.024Z,22.23
2018-04-17T19:22:37.709Z,29.87
2018-04-17T19:25:05.640Z,29.03
2018-04-17T19:27:34.124Z,22.37
2018-04-17T19:30:00.840Z,19.93
2018-04-17T19:32:27.606Z,23.70
2018-04-17T19:34:55.235Z,22.90
2018-04-17T19:37:21.995Z,28.50
2018-04-17T19:39:48.797Z,22.70
2018-04-17T19:42:15.543Z,23.10
2018-04-17T19:44:43.528Z,27.90
2018-04-17T19:47:10.303Z,22.37
2018-04-17T19:49:36.999Z,28.30
2018-04-17T19:52:03.739Z,27.17
2018-04-17T19:54:30.407Z,25.83
2018-04-17T19:56:57.195Z,25.77
2018-04-17T19:59:23.941Z,19.97
2018-04-17T20:01:50.735Z,19.10
2018-04-17T20:04:17.524Z,17.60
2018-04-17T20:06:44.358Z,17.57
2018-04-17T20:09:11.130Z,15.07
2018-04-17T20:11:37.927Z,19.97
2018-04-17T20:14:04.740Z,21.90
2018-04-17T20:16:31.541Z,18.60
2018-04-17T20:18:58.352Z,23.33
2018-04-17T20:21:25.875Z,16.50
2018-04-17T20:23:52.660Z,18.13
2018-04-17T20:26:19.399Z,15.77
2018-04-17T20:28:46.268Z,14.50
2018-04-17T20:31:13.082Z,17.27
2018-04-17T20:33:39.805Z,17.30
2018-04-17T20:36:07.318Z,16.27
2018-04-17T20:38:34.100Z,14.53
2018-04-17T20:41:00.865Z,12.07
2018-04-17T20:43:27.698Z,10.70
2018-04-17T20:45:55.207Z,14.30
2018-04-17T20:48:21.960Z,13.83
2018-04-17T20:50:48.760Z,10.80
2018-04-17T20:53:15.612Z,10.17
2018-04-17T20:55:42.436Z,6.80
2018-04-17T20:58:09.257Z,12.87
2018-04-17T21:00:36.810Z,7.17
2018-04-17T21:03:03.593Z,10.73
2018-04-17T21:05:30.455Z,11.10
2018-04-17T21:07:57.244Z,10.37
2018-04-17T21:10:24.748Z,6.90
2018-04-17T21:12:51.527Z,8.77
2018-04-17T21:15:19.813Z,10.50
2018-04-17T21:17:47.317Z,7.10
2018-04-17T21:20:14.100Z,9.37
2018-04-17T21:22:41.663Z,8.13
2018-04-17T21:25:09.212Z,7.60
2018-04-17T21:27:35.967Z,6.60
2018-04-17T21:30:04.388Z,8.33
2018-04-17T21:32:32.175Z,7.53
2018-04-17T21:34:58.902Z,6.30
2018-04-17T21:37:25.687Z,7.30
2018-04-17T21:39:53.248Z,5.83
2018-04-17T21:42:20.003Z,5.73
2018-04-17T21:44:46.730Z,4.77
2018-04-17T21:47:14.208Z,8.20
2018-04-17T21:49:40.955Z,6.73
2018-04-17T21:52:08.003Z,9.73
2018-04-17T21:54:34.850Z,6.80
2018-04-17T21:57:01.686Z,5.57
2018-04-17T21:59:28.538Z,7.50
2018-04-17T22:01:55.342Z,6.07
2018-04-17T22:04:22.853Z,7.93
2018-04-17T22:06:49.667Z,11.00
2018-04-17T22:09:17.080Z,8.37
2018-04-17T22:11:44.647Z,7.07
2018-04-17T22:14:12.183Z,7.63
2018-04-17T22:16:38.980Z,5.40
2018-04-17T22:19:05.793Z,7.47
2018-04-17T22:21:33.380Z,8.47
2018-04-17T22:24:00.207Z,6.07
2018-04-17T22:26:27.040Z,6.17
2018-04-17T22:28:53.850Z,9.67
2018-04-17T22:31:20.715Z,6.23
2018-04-17T22:33:48.275Z,9.83
2018-04-17T22:36:15.118Z,7.37
2018-04-17T22:38:41.955Z,6.47
2018-04-17T22:41:08.735Z,8.87
2018-04-17T22:43:35.588Z,6.73
2018-04-17T22:46:02.390Z,8.17
2018-04-17T22:48:29.227Z,8.40
2018-04-17T22:50:56.055Z,8.80
2018-04-17T22:53:23.615Z,8.17
2018-04-17T22:55:51.265Z,7.10
2018-04-17T22:58:18.116Z,7.60
2018-04-17T23:00:45.643Z,6.87
2018-04-17T23:03:12.445Z,6.10
2018-04-17T23:05:39.245Z,12.20
2018-04-17T23:08:06.123Z,7.90
2018-04-17T23:10:32.935Z,6.27
2018-04-17T23:12:59.746Z,5.03
2018-04-17T23:15:27.483Z,7.57
2018-04-17T23:17:54.235Z,8.80
2018-04-17T23:20:20.999Z,7.10
2018-04-17T23:22:47.810Z,5.77
2018-04-17T23:25:14.522Z,7.63
2018-04-17T23:27:42.025Z,6.20
2018-04-17T23:30:08.775Z,5.60
2018-04-17T23:32:35.545Z,4.93
2018-04-17T23:35:03.058Z,5.17
2018-04-17T23:37:29.778Z,7.70
2018-04-17T23:39:56.505Z,4.67
2018-04-17T23:42:23.271Z,6.53
2018-04-17T23:44:50.008Z,7.63
2018-04-17T23:47:16.722Z,5.23
2018-04-17T23:49:43.501Z,6.30
2018-04-17T23:52:10.263Z,6.87
2018-04-17T23:54:37.352Z,4.33
2018-04-17T23:57:04.083Z,6.63
2018-04-17T23:59:30.890Z,5.67
